createdAt,value
2023-02-23T00:00:23.554Z,13.90
2023-02-23T00:05:50.924Z,13.90
2023-02-23T00:08:23.710Z,12.30
2023-02-23T00:10:58.893Z,11.20
2023-02-23T00:13:37.658Z,10.90
2023-02-23T00:16:13.754Z,11.80
2023-02-23T00:18:51.121Z,10.70
2023-02-23T00:21:29.955Z,10.80
2023-02-23T00:24:05.354Z,10.50
2023-02-23T00:26:40.345Z,9.90
2023-02-23T00:29:17.540Z,12.00
2023-02-23T00:31:51.748Z,10.20
2023-02-23T00:34:24.266Z,9.10
2023-02-23T00:36:57.143Z,9.60
2023-02-23T00:39:37.333Z,9.90
2023-02-23T00:42:10.722Z,9.90
2023-02-23T00:44:43.476Z,11.20
2023-02-23T00:47:15.936Z,10.40
2023-02-23T00:49:48.365Z,9.90
2023-02-23T00:52:20.738Z,10.60
2023-02-23T00:54:53.988Z,10.80
2023-02-23T00:57:29.632Z,11.30
2023-02-23T01:00:02.049Z,10.40
2023-02-23T01:02:34.507Z,9.40
2023-02-23T01:05:07.426Z,10.00
2023-02-23T01:07:40.174Z,10.30
2023-02-23T01:10:20.336Z,10.80
2023-02-23T01:12:54.696Z,11.00
2023-02-23T01:15:29.259Z,9.30
2023-02-23T01:18:01.822Z,10.50
2023-02-23T01:20:36.369Z,11.40
2023-02-23T01:23:09.152Z,10.80
2023-02-23T01:25:42.910Z,9.80
2023-02-23T01:28:15.710Z,9.60
2023-02-23T01:30:49.316Z,10.40
2023-02-23T01:33:21.893Z,10.30
2023-02-23T01:36:01.862Z,9.30
2023-02-23T01:38:34.196Z,10.20
2023-02-23T01:41:10.638Z,12.90
2023-02-23T01:43:58.493Z,11.90
2023-02-23T01:46:32.379Z,11.30
2023-02-23T01:49:07.237Z,11.10
2023-02-23T01:51:48.697Z,11.90
2023-02-23T01:54:29.163Z,11.50
2023-02-23T01:57:05.096Z,10.30
2023-02-23T01:59:41.201Z,11.20
2023-02-23T02:02:14.340Z,12.60
2023-02-23T02:04:49.088Z,11.30
2023-02-23T02:07:24.104Z,12.20
2023-02-23T02:10:27.535Z,11.10
2023-02-23T02:13:01.101Z,10.40
2023-02-23T02:15:38.907Z,11.10
2023-02-23T02:18:23.736Z,11.30
2023-02-23T02:21:25.364Z,12.50
2023-02-23T02:24:30.421Z,11.70
2023-02-23T02:27:22.426Z,11.90
2023-02-23T02:30:28.241Z,11.50
2023-02-23T02:33:33.297Z,10.80
2023-02-23T02:36:59.465Z,12.00
2023-02-23T02:39:40.361Z,11.30
2023-02-23T02:42:25.686Z,11.50
2023-02-23T02:45:10.967Z,11.20
2023-02-23T02:50:31.639Z,12.20
2023-02-23T02:53:10.268Z,11.80
2023-02-23T02:55:45.359Z,13.00
2023-02-23T02:58:20.590Z,12.30
2023-02-23T03:01:11.794Z,11.60
2023-02-23T03:04:08.057Z,13.00
2023-02-23T03:07:05.216Z,13.10
2023-02-23T03:10:06.499Z,12.10
2023-02-23T03:13:04.705Z,11.50
2023-02-23T03:16:10.005Z,12.30
2023-02-23T03:19:17.997Z,11.80
2023-02-23T03:22:14.349Z,12.00
2023-02-23T03:25:11.365Z,11.80
2023-02-23T03:28:11.516Z,10.70
2023-02-23T03:31:10.904Z,11.80
2023-02-23T03:34:09.594Z,11.80
2023-02-23T03:37:07.097Z,12.20
2023-02-23T03:40:06.473Z,10.10
2023-02-23T03:42:58.486Z,11.20
2023-02-23T03:45:51.530Z,12.10
2023-02-23T03:48:44.308Z,11.50
2023-02-23T03:51:37.152Z,11.40
2023-02-23T03:54:32.921Z,11.60
2023-02-23T03:57:29.289Z,11.00
2023-02-23T04:00:22.607Z,11.90
2023-02-23T04:03:16.876Z,11.10
2023-02-23T04:06:09.847Z,11.70
2023-02-23T04:09:00.359Z,11.60
2023-02-23T04:14:34.247Z,10.50
2023-02-23T04:17:09.316Z,12.20
2023-02-23T04:19:49.951Z,12.10
2023-02-23T04:22:22.845Z,11.50
2023-02-23T04:24:55.426Z,11.40
2023-02-23T04:27:29.400Z,13.00
2023-02-23T04:30:03.801Z,11.60
2023-02-23T04:35:50.781Z,10.80
2023-02-23T04:38:23.257Z,12.90
2023-02-23T04:40:55.513Z,12.80
2023-02-23T04:43:27.666Z,13.50
2023-02-23T04:45:59.958Z,12.70
2023-02-23T04:48:32.383Z,14.30
2023-02-23T04:51:04.666Z,13.50
2023-02-23T04:53:37.014Z,15.40
2023-02-23T04:56:10.086Z,12.90
2023-02-23T04:58:42.300Z,15.40
2023-02-23T05:01:14.574Z,12.80
2023-02-23T05:03:46.845Z,13.30
2023-02-23T05:06:19.746Z,13.00
2023-02-23T05:08:52.034Z,14.00
2023-02-23T05:11:25.157Z,11.80
2023-02-23T05:13:57.587Z,13.20
2023-02-23T05:16:29.834Z,11.10
2023-02-23T05:19:02.208Z,12.80
2023-02-23T05:21:34.498Z,11.90
2023-02-23T05:24:07.418Z,14.00
2023-02-23T05:26:40.002Z,13.60
2023-02-23T05:29:12.413Z,13.10
2023-02-23T05:31:44.824Z,11.80
2023-02-23T05:34:19.039Z,12.20
2023-02-23T05:36:51.349Z,12.20
2023-02-23T05:39:23.560Z,13.60
2023-02-23T05:41:56.184Z,13.60
2023-02-23T05:44:28.737Z,13.10
2023-02-23T05:47:01.157Z,14.50
2023-02-23T05:49:33.588Z,14.50
2023-02-23T05:52:06.231Z,14.80
2023-02-23T05:54:38.565Z,16.60
2023-02-23T05:57:11.102Z,15.20
2023-02-23T05:59:43.731Z,17.30
2023-02-23T06:02:19.168Z,18.20
2023-02-23T06:04:51.416Z,16.90
2023-02-23T06:07:30.076Z,16.90
2023-02-23T06:10:02.379Z,17.80
2023-02-23T06:12:34.725Z,16.40
2023-02-23T06:15:08.600Z,19.30
2023-02-23T06:17:40.827Z,20.70
2023-02-23T06:20:16.244Z,15.70
2023-02-23T06:22:49.029Z,15.20
2023-02-23T06:25:21.927Z,16.00
2023-02-23T06:27:54.888Z,12.90
2023-02-23T06:30:27.273Z,13.60
2023-02-23T06:32:59.710Z,14.20
2023-02-23T06:35:33.024Z,13.00
2023-02-23T06:38:09.264Z,14.00
2023-02-23T06:40:44.844Z,14.70
2023-02-23T06:43:17.322Z,14.10
2023-02-23T06:45:50.669Z,15.90
2023-02-23T06:48:22.954Z,15.10
2023-02-23T06:51:00.315Z,16.60
2023-02-23T06:53:33.760Z,14.40
2023-02-23T06:56:06.658Z,15.40
2023-02-23T06:58:43.474Z,15.60
2023-02-23T07:01:19.019Z,14.70
2023-02-23T07:03:51.747Z,14.40
2023-02-23T07:06:24.970Z,14.60
2023-02-23T07:09:03.032Z,12.50
2023-02-23T07:11:36.658Z,12.50
2023-02-23T07:14:15.374Z,14.70
2023-02-23T07:16:56.163Z,14.30
2023-02-23T07:19:28.854Z,13.30
2023-02-23T07:22:01.486Z,13.60
2023-02-23T07:24:33.984Z,12.40
2023-02-23T07:27:06.451Z,15.00
2023-02-23T07:29:42.130Z,15.60
2023-02-23T07:32:14.635Z,13.90
2023-02-23T07:34:47.948Z,14.80
2023-02-23T07:37:20.428Z,14.40
2023-02-23T07:39:55.012Z,16.30
2023-02-23T07:42:27.440Z,15.40
2023-02-23T07:45:02.615Z,16.20
2023-02-23T07:47:35.488Z,18.00
2023-02-23T07:50:12.779Z,18.70
2023-02-23T07:52:45.843Z,19.10
2023-02-23T07:55:22.477Z,19.40
2023-02-23T07:57:55.239Z,20.80
2023-02-23T08:00:28.153Z,18.10
2023-02-23T08:03:01.544Z,18.70
2023-02-23T08:05:34.028Z,18.20
2023-02-23T08:08:06.790Z,18.30
2023-02-23T08:10:39.607Z,18.40
2023-02-23T08:13:12.364Z,18.50
2023-02-23T08:15:44.949Z,17.10
2023-02-23T08:18:17.820Z,16.30
2023-02-23T08:20:50.072Z,18.30
2023-02-23T08:23:22.423Z,18.90
2023-02-23T08:25:56.014Z,18.40
2023-02-23T08:28:28.859Z,18.70
2023-02-23T08:31:01.722Z,18.50
2023-02-23T08:33:34.971Z,17.60
2023-02-23T08:36:08.190Z,18.20
2023-02-23T08:38:40.931Z,18.50
2023-02-23T08:41:13.299Z,18.80
2023-02-23T08:43:45.655Z,20.50
2023-02-23T08:46:20.507Z,22.80
2023-02-23T08:48:53.143Z,22.10
2023-02-23T08:51:25.879Z,21.10
2023-02-23T08:53:58.333Z,23.00
2023-02-23T08:56:31.904Z,23.50
2023-02-23T08:59:04.194Z,24.20
2023-02-23T09:01:37.287Z,22.50
2023-02-23T09:04:10.072Z,21.50
2023-02-23T09:06:42.645Z,20.90
2023-02-23T09:09:15.000Z,19.90
2023-02-23T09:11:47.515Z,19.40
2023-02-23T09:14:22.958Z,20.30
2023-02-23T09:16:55.352Z,21.40
2023-02-23T09:19:28.478Z,20.90
2023-02-23T09:22:03.238Z,20.20
2023-02-23T09:24:35.510Z,20.00
2023-02-23T09:27:13.053Z,19.50
2023-02-23T09:29:45.334Z,19.20
2023-02-23T09:32:17.827Z,18.80
2023-02-23T09:34:52.650Z,19.30
2023-02-23T09:37:25.650Z,18.00
2023-02-23T09:39:58.228Z,19.30
2023-02-23T09:42:41.285Z,20.20
2023-02-23T09:45:37.418Z,18.40
2023-02-23T09:48:17.666Z,19.00
2023-02-23T09:50:57.262Z,20.30
2023-02-23T09:53:40.622Z,20.50
2023-02-23T09:56:19.568Z,20.90
2023-02-23T09:58:57.263Z,21.10
2023-02-23T10:02:00.736Z,19.00
2023-02-23T10:04:45.533Z,21.00
2023-02-23T10:07:27.607Z,20.50
2023-02-23T10:10:23.741Z,19.70
2023-02-23T10:13:05.746Z,19.60
2023-02-23T10:15:46.676Z,16.40
2023-02-23T10:18:46.234Z,19.60
2023-02-23T10:24:03.161Z,18.70
2023-02-23T10:26:44.460Z,24.20
2023-02-23T10:29:28.422Z,18.20
2023-02-23T10:32:07.536Z,17.90
2023-02-23T10:34:41.059Z,15.60
2023-02-23T10:37:21.960Z,15.20
2023-02-23T10:39:55.490Z,14.20
2023-02-23T10:42:31.959Z,14.50
2023-02-23T10:45:04.478Z,15.00
2023-02-23T10:47:38.933Z,13.80
2023-02-23T10:50:15.580Z,13.30
2023-02-23T10:52:49.827Z,14.10
2023-02-23T10:55:28.748Z,13.20
2023-02-23T10:58:11.256Z,13.20
2023-02-23T11:00:53.595Z,14.20
2023-02-23T11:03:35.051Z,14.80
2023-02-23T11:06:08.903Z,14.30
2023-02-23T11:08:42.009Z,15.20
2023-02-23T11:11:28.918Z,14.40
2023-02-23T11:14:16.951Z,13.90
2023-02-23T11:16:49.551Z,14.80
2023-02-23T11:19:26.408Z,14.80
2023-02-23T11:21:58.758Z,16.00
2023-02-23T11:24:42.321Z,14.70
2023-02-23T11:27:25.327Z,13.30
2023-02-23T11:30:06.365Z,15.30
2023-02-23T11:32:45.025Z,16.10
2023-02-23T11:35:33.088Z,16.20
2023-02-23T11:38:23.690Z,16.40
2023-02-23T11:41:04.285Z,18.00
2023-02-23T11:43:37.264Z,14.90
2023-02-23T11:49:27.956Z,15.10
2023-02-23T11:52:00.633Z,17.00
2023-02-23T11:54:35.099Z,15.90
2023-02-23T11:57:07.814Z,14.90
2023-02-23T11:59:41.962Z,17.60
2023-02-23T12:02:25.119Z,17.90
2023-02-23T12:05:07.933Z,16.80
2023-02-23T12:07:47.364Z,14.70
2023-02-23T12:10:24.660Z,13.00
2023-02-23T12:13:07.476Z,13.70
2023-02-23T12:15:48.892Z,14.10
2023-02-23T12:18:39.787Z,13.50
2023-02-23T12:21:24.931Z,11.90
2023-02-23T12:24:05.553Z,12.60
2023-02-23T12:26:46.179Z,12.50
2023-02-23T12:31:59.119Z,13.50
2023-02-23T12:34:43.985Z,13.00
2023-02-23T12:37:29.463Z,12.10
2023-02-23T12:40:12.402Z,11.90
2023-02-23T12:42:50.714Z,11.90
2023-02-23T12:45:30.269Z,12.50
2023-02-23T12:48:13.722Z,13.60
2023-02-23T12:50:53.010Z,12.30
2023-02-23T12:53:32.603Z,13.30
2023-02-23T12:56:17.741Z,15.00
2023-02-23T12:58:58.715Z,14.00
2023-02-23T13:01:35.997Z,13.30
2023-02-23T13:04:45.171Z,13.60
2023-02-23T13:07:24.091Z,13.40
2023-02-23T13:10:06.882Z,13.50
2023-02-23T13:12:49.494Z,14.30
2023-02-23T13:15:30.935Z,14.40
2023-02-23T13:18:10.602Z,14.10
2023-02-23T13:20:49.144Z,17.10
2023-02-23T13:23:28.836Z,14.40
2023-02-23T13:26:13.212Z,13.30
2023-02-23T13:28:56.667Z,13.30
2023-02-23T13:31:33.596Z,12.20
2023-02-23T13:34:10.625Z,11.80
2023-02-23T13:36:44.149Z,11.90
2023-02-23T13:39:49.735Z,11.20
2023-02-23T13:42:33.221Z,11.80
2023-02-23T13:45:28.855Z,10.70
2023-02-23T13:48:08.073Z,10.00
2023-02-23T13:50:50.646Z,10.90
2023-02-23T13:53:41.094Z,10.80
2023-02-23T13:56:19.361Z,11.80
2023-02-23T13:58:57.720Z,12.10
2023-02-23T14:01:34.603Z,12.30
2023-02-23T14:04:13.054Z,14.00
2023-02-23T14:06:56.875Z,13.60
2023-02-23T14:09:35.455Z,13.10
2023-02-23T14:12:19.512Z,13.60
2023-02-23T14:14:52.109Z,13.70
2023-02-23T14:17:50.520Z,14.50
2023-02-23T14:20:38.257Z,14.30
2023-02-23T14:23:38.100Z,14.10
2023-02-23T14:26:39.527Z,14.50
2023-02-23T14:29:29.208Z,13.80
2023-02-23T14:32:30.458Z,15.50
2023-02-23T14:35:03.908Z,14.30
2023-02-23T14:37:38.256Z,15.30
2023-02-23T14:40:19.353Z,14.10
2023-02-23T14:42:53.540Z,14.50
2023-02-23T14:45:29.013Z,14.40
2023-02-23T14:48:08.055Z,14.40
2023-02-23T14:50:41.440Z,15.70
2023-02-23T14:53:20.070Z,14.20
2023-02-23T14:55:52.338Z,15.30
2023-02-23T14:58:28.150Z,16.00
2023-02-23T15:01:00.792Z,14.50
2023-02-23T15:03:33.008Z,15.60
2023-02-23T15:06:06.577Z,14.30
2023-02-23T15:08:46.028Z,16.30
2023-02-23T15:11:21.577Z,15.50
2023-02-23T15:13:55.807Z,15.20
2023-02-23T15:16:34.494Z,14.70
2023-02-23T15:19:08.229Z,14.40
2023-02-23T15:21:41.116Z,14.40
2023-02-23T15:24:16.711Z,13.50
2023-02-23T15:26:49.802Z,14.20
2023-02-23T15:29:24.861Z,14.10
2023-02-23T15:31:58.493Z,14.90
2023-02-23T15:34:35.094Z,14.40
2023-02-23T15:37:14.207Z,13.00
2023-02-23T15:39:54.083Z,14.80
2023-02-23T15:42:33.609Z,14.30
2023-02-23T15:45:20.163Z,15.10
2023-02-23T15:47:56.432Z,14.00
2023-02-23T15:50:37.255Z,15.30
2023-02-23T15:53:19.718Z,15.50
2023-02-23T15:55:55.714Z,15.90
2023-02-23T15:58:30.815Z,15.10
2023-02-23T16:01:13.615Z,13.60
2023-02-23T16:03:57.901Z,14.40
2023-02-23T16:06:35.885Z,14.30
2023-02-23T16:09:25.273Z,13.90
2023-02-23T16:12:04.568Z,14.50
2023-02-23T16:14:44.904Z,13.60
2023-02-23T16:17:26.928Z,14.40
2023-02-23T16:20:14.801Z,15.30
2023-02-23T16:22:54.995Z,17.10
2023-02-23T16:25:31.448Z,17.20
2023-02-23T16:28:06.705Z,17.50
2023-02-23T16:30:44.281Z,17.50
2023-02-23T16:33:22.970Z,20.40
2023-02-23T16:36:07.337Z,23.30
2023-02-23T16:38:41.117Z,19.30
2023-02-23T16:41:20.509Z,20.00
2023-02-23T16:43:54.045Z,19.90
2023-02-23T16:46:29.859Z,21.20
2023-02-23T16:49:10.433Z,19.60
2023-02-23T16:54:14.202Z,21.00
2023-02-23T16:56:47.805Z,21.80
2023-02-23T16:59:21.566Z,20.80
2023-02-23T17:01:54.293Z,21.30
2023-02-23T17:04:29.792Z,22.10
2023-02-23T17:07:02.137Z,22.70
2023-02-23T17:09:34.295Z,20.80
2023-02-23T17:12:07.214Z,20.40
2023-02-23T17:14:41.311Z,21.10
2023-02-23T17:17:23.103Z,21.00
2023-02-23T17:19:55.356Z,20.60
2023-02-23T17:22:36.613Z,21.40
2023-02-23T17:25:14.339Z,20.40
2023-02-23T17:27:46.507Z,22.30
2023-02-23T17:30:20.096Z,24.30
2023-02-23T17:32:53.023Z,23.20
2023-02-23T17:35:26.893Z,24.90
2023-02-23T17:37:59.254Z,24.10
2023-02-23T17:40:34.708Z,25.60
2023-02-23T17:43:08.699Z,23.90
2023-02-23T17:45:43.261Z,23.00
2023-02-23T17:48:15.465Z,23.30
2023-02-23T17:50:47.747Z,22.70
2023-02-23T17:53:20.128Z,23.30
2023-02-23T17:55:52.469Z,23.50
2023-02-23T17:58:25.394Z,23.90
2023-02-23T18:00:59.453Z,25.80
2023-02-23T18:03:33.680Z,24.60
2023-02-23T18:06:08.458Z,26.10
2023-02-23T18:08:42.723Z,26.10
2023-02-23T18:11:17.657Z,28.50
2023-02-23T18:13:51.454Z,29.20
2023-02-23T18:16:24.586Z,28.40
2023-02-23T18:18:58.095Z,26.90
2023-02-23T18:21:30.697Z,29.20
2023-02-23T18:24:03.282Z,22.40
2023-02-23T18:26:35.765Z,25.70
2023-02-23T18:29:10.798Z,26.30
2023-02-23T18:31:43.242Z,26.50
2023-02-23T18:34:16.604Z,26.60
2023-02-23T18:36:48.807Z,26.70
2023-02-23T18:39:21.011Z,27.80
2023-02-23T18:41:53.424Z,28.90
2023-02-23T18:44:26.947Z,28.20
2023-02-23T18:47:01.211Z,26.80
2023-02-23T18:49:33.597Z,28.40
2023-02-23T18:52:12.094Z,30.10
2023-02-23T18:54:44.396Z,25.90
2023-02-23T18:57:16.797Z,31.40
2023-02-23T18:59:49.456Z,30.10
2023-02-23T19:02:23.437Z,29.90
2023-02-23T19:05:02.923Z,29.80
2023-02-23T19:07:35.728Z,29.70
2023-02-23T19:10:12.358Z,31.20
2023-02-23T19:12:44.809Z,30.60
2023-02-23T19:15:17.659Z,28.90
2023-02-23T19:17:50.345Z,29.70
2023-02-23T19:20:22.929Z,32.20
2023-02-23T19:22:55.671Z,30.60
2023-02-23T19:25:27.964Z,28.90
2023-02-23T19:28:01.165Z,30.40
2023-02-23T19:30:38.075Z,28.60
2023-02-23T19:33:10.377Z,29.60
2023-02-23T19:35:44.568Z,31.60
2023-02-23T19:38:17.594Z,30.60
2023-02-23T19:40:51.011Z,32.50
2023-02-23T19:43:23.297Z,32.50
2023-02-23T19:45:55.649Z,33.40
2023-02-23T19:48:29.066Z,34.00
2023-02-23T19:51:01.771Z,37.40
2023-02-23T19:53:35.940Z,36.10
2023-02-23T19:56:10.200Z,35.20
2023-02-23T19:58:46.777Z,36.40
2023-02-23T20:01:21.152Z,37.30
2023-02-23T20:03:55.616Z,35.50
2023-02-23T20:06:30.742Z,38.70
2023-02-23T20:09:04.609Z,39.60
2023-02-23T20:11:37.065Z,36.80
2023-02-23T20:14:09.414Z,38.40
2023-02-23T20:16:41.680Z,37.20
2023-02-23T20:19:14.030Z,40.20
2023-02-23T20:21:46.338Z,40.70
2023-02-23T20:24:19.660Z,41.60
2023-02-23T20:26:58.198Z,40.80
2023-02-23T20:29:30.625Z,41.50
2023-02-23T20:32:04.753Z,42.80
2023-02-23T20:34:39.343Z,40.00
2023-02-23T20:37:11.646Z,39.80
2023-02-23T20:39:43.867Z,41.10
2023-02-23T20:42:16.695Z,42.50
2023-02-23T20:44:50.262Z,44.30
2023-02-23T20:47:23.087Z,43.30
